sensor_id;sensor_type;location;lat;lon;timestamp;P1;durP1;ratioP1;P2;durP2;ratioP2
75542;SDS011;64129;53.508;10.476;2023-07-16T00:01:01;2.55;;;0.88;;
75542;SDS011;64129;53.508;10.476;2023-07-16T00:03:28;1.02;;;0.82;;
75542;SDS011;64129;53.508;10.476;2023-07-16T00:05:54;1.50;;;0.98;;
75542;SDS011;64129;53.508;10.476;2023-07-16T00:08:21;2.28;;;1.05;;
75542;SDS011;64129;53.508;10.476;2023-07-16T00:10:48;3.97;;;0.93;;
75542;SDS011;64129;53.508;10.476;2023-07-16T00:13:15;2.53;;;0.85;;
75542;SDS011;64129;53.508;10.476;2023-07-16T00:15:41;1.58;;;0.90;;
75542;SDS011;64129;53.508;10.476;2023-07-16T00:18:08;1.75;;;0.95;;
75542;SDS011;64129;53.508;10.476;2023-07-16T00:20:34;1.52;;;0.75;;
75542;SDS011;64129;53.508;10.476;2023-07-16T00:23:01;0.70;;;0.68;;
75542;SDS011;64129;53.508;10.476;2023-07-16T00:25:27;1.33;;;0.80;;
75542;SDS011;64129;53.508;10.476;2023-07-16T00:27:54;1.38;;;0.90;;
75542;SDS011;64129;53.508;10.476;2023-07-16T00:30:20;2.13;;;0.80;;
75542;SDS011;64129;53.508;10.476;2023-07-16T00:32:47;1.88;;;0.90;;
75542;SDS011;64129;53.508;10.476;2023-07-16T00:35:14;1.45;;;1.05;;
75542;SDS011;64129;53.508;10.476;2023-07-16T00:37:40;2.33;;;0.98;;
75542;SDS011;64129;53.508;10.476;2023-07-16T00:40:07;2.03;;;0.82;;
75542;SDS011;64129;53.508;10.476;2023-07-16T00:42:34;1.20;;;0.98;;
75542;SDS011;64129;53.508;10.476;2023-07-16T00:45:01;2.15;;;1.10;;
75542;SDS011;64129;53.508;10.476;2023-07-16T00:47:28;2.38;;;1.08;;
75542;SDS011;64129;53.508;10.476;2023-07-16T00:49:55;1.63;;;0.88;;
75542;SDS011;64129;53.508;10.476;2023-07-16T00:52:22;1.38;;;0.80;;
75542;SDS011;64129;53.508;10.476;2023-07-16T00:54:48;1.90;;;0.90;;
75542;SDS011;64129;53.508;10.476;2023-07-16T00:57:16;2.80;;;1.10;;
75542;SDS011;64129;53.508;10.476;2023-07-16T00:59:43;4.53;;;1.00;;
75542;SDS011;64129;53.508;10.476;2023-07-16T01:02:09;1.98;;;0.85;;
75542;SDS011;64129;53.508;10.476;2023-07-16T01:04:36;2.45;;;1.10;;
75542;SDS011;64129;53.508;10.476;2023-07-16T01:07:04;1.42;;;1.05;;
75542;SDS011;64129;53.508;10.476;2023-07-16T01:09:34;1.50;;;1.00;;
75542;SDS011;64129;53.508;10.476;2023-07-16T01:12:05;2.78;;;1.25;;
75542;SDS011;64129;53.508;10.476;2023-07-16T01:14:34;2.95;;;1.17;;
75542;SDS011;64129;53.508;10.476;2023-07-16T01:17:03;2.42;;;1.10;;
75542;SDS011;64129;53.508;10.476;2023-07-16T01:19:33;1.42;;;1.00;;
75542;SDS011;64129;53.508;10.476;2023-07-16T01:24:40;1.85;;;1.10;;
75542;SDS011;64129;53.508;10.476;2023-07-16T01:29:52;2.95;;;1.15;;
75542;SDS011;64129;53.508;10.476;2023-07-16T01:32:23;3.13;;;1.35;;
75542;SDS011;64129;53.508;10.476;2023-07-16T01:34:51;2.30;;;1.45;;
75542;SDS011;64129;53.508;10.476;2023-07-16T01:37:19;2.55;;;0.90;;
75542;SDS011;64129;53.508;10.476;2023-07-16T01:39:46;2.92;;;1.23;;
75542;SDS011;64129;53.508;10.476;2023-07-16T01:42:13;1.52;;;0.95;;
75542;SDS011;64129;53.508;10.476;2023-07-16T01:44:39;1.88;;;1.10;;
75542;SDS011;64129;53.508;10.476;2023-07-16T01:47:49;2.47;;;1.05;;
75542;SDS011;64129;53.508;10.476;2023-07-16T01:50:20;1.77;;;1.10;;
75542;SDS011;64129;53.508;10.476;2023-07-16T01:52:47;1.88;;;0.93;;
75542;SDS011;64129;53.508;10.476;2023-07-16T01:55:14;2.03;;;0.80;;
75542;SDS011;64129;53.508;10.476;2023-07-16T01:57:40;2.42;;;1.45;;
75542;SDS011;64129;53.508;10.476;2023-07-16T02:04:20;1.73;;;0.95;;
75542;SDS011;64129;53.508;10.476;2023-07-16T02:06:46;2.17;;;1.05;;
75542;SDS011;64129;53.508;10.476;2023-07-16T02:09:18;2.75;;;1.08;;
75542;SDS011;64129;53.508;10.476;2023-07-16T02:11:45;1.80;;;1.02;;
75542;SDS011;64129;53.508;10.476;2023-07-16T02:14:11;1.83;;;1.10;;
75542;SDS011;64129;53.508;10.476;2023-07-16T02:16:40;2.08;;;1.00;;
75542;SDS011;64129;53.508;10.476;2023-07-16T02:19:07;3.95;;;1.30;;
75542;SDS011;64129;53.508;10.476;2023-07-16T02:21:34;1.30;;;1.08;;
75542;SDS011;64129;53.508;10.476;2023-07-16T02:24:01;1.85;;;1.30;;
75542;SDS011;64129;53.508;10.476;2023-07-16T02:26:27;1.25;;;1.15;;
75542;SDS011;64129;53.508;10.476;2023-07-16T02:28:54;1.63;;;1.10;;
75542;SDS011;64129;53.508;10.476;2023-07-16T02:31:20;1.95;;;1.10;;
75542;SDS011;64129;53.508;10.476;2023-07-16T02:33:47;1.20;;;1.08;;
75542;SDS011;64129;53.508;10.476;2023-07-16T02:40:20;3.53;;;1.35;;
75542;SDS011;64129;53.508;10.476;2023-07-16T02:42:46;1.58;;;0.82;;
75542;SDS011;64129;53.508;10.476;2023-07-16T02:45:13;1.88;;;0.95;;
75542;SDS011;64129;53.508;10.476;2023-07-16T02:47:39;2.13;;;1.15;;
75542;SDS011;64129;53.508;10.476;2023-07-16T02:50:06;3.63;;;1.27;;
75542;SDS011;64129;53.508;10.476;2023-07-16T02:52:33;2.30;;;1.00;;
75542;SDS011;64129;53.508;10.476;2023-07-16T02:54:59;1.90;;;1.10;;
75542;SDS011;64129;53.508;10.476;2023-07-16T02:57:26;2.15;;;1.25;;
75542;SDS011;64129;53.508;10.476;2023-07-16T02:59:52;2.13;;;1.00;;
75542;SDS011;64129;53.508;10.476;2023-07-16T03:02:19;3.50;;;0.90;;
75542;SDS011;64129;53.508;10.476;2023-07-16T03:04:45;1.92;;;1.02;;
75542;SDS011;64129;53.508;10.476;2023-07-16T03:07:12;1.25;;;1.08;;
75542;SDS011;64129;53.508;10.476;2023-07-16T03:09:38;2.25;;;1.23;;
75542;SDS011;64129;53.508;10.476;2023-07-16T03:12:05;1.48;;;1.20;;
75542;SDS011;64129;53.508;10.476;2023-07-16T03:14:32;2.50;;;1.15;;
75542;SDS011;64129;53.508;10.476;2023-07-16T03:16:59;2.15;;;1.35;;
75542;SDS011;64129;53.508;10.476;2023-07-16T03:19:25;3.22;;;1.30;;
75542;SDS011;64129;53.508;10.476;2023-07-16T03:21:52;3.05;;;1.10;;
75542;SDS011;64129;53.508;10.476;2023-07-16T03:24:19;1.83;;;1.40;;
75542;SDS011;64129;53.508;10.476;2023-07-16T03:26:46;2.33;;;1.20;;
75542;SDS011;64129;53.508;10.476;2023-07-16T03:29:12;1.00;;;0.90;;
75542;SDS011;64129;53.508;10.476;2023-07-16T03:31:39;3.20;;;1.35;;
75542;SDS011;64129;53.508;10.476;2023-07-16T03:34:05;3.30;;;1.13;;
75542;SDS011;64129;53.508;10.476;2023-07-16T03:36:32;5.50;;;1.45;;
75542;SDS011;64129;53.508;10.476;2023-07-16T03:38:58;2.55;;;1.17;;
75542;SDS011;64129;53.508;10.476;2023-07-16T03:41:25;1.55;;;1.10;;
75542;SDS011;64129;53.508;10.476;2023-07-16T03:43:52;3.88;;;1.25;;
75542;SDS011;64129;53.508;10.476;2023-07-16T03:46:20;2.35;;;1.33;;
75542;SDS011;64129;53.508;10.476;2023-07-16T03:48:46;2.53;;;1.40;;
75542;SDS011;64129;53.508;10.476;2023-07-16T03:51:13;4.03;;;1.42;;
75542;SDS011;64129;53.508;10.476;2023-07-16T03:53:40;3.00;;;1.33;;
75542;SDS011;64129;53.508;10.476;2023-07-16T03:56:06;3.03;;;1.30;;
75542;SDS011;64129;53.508;10.476;2023-07-16T03:58:34;3.97;;;1.23;;
75542;SDS011;64129;53.508;10.476;2023-07-16T04:01:01;1.60;;;1.38;;
75542;SDS011;64129;53.508;10.476;2023-07-16T04:03:28;2.78;;;1.20;;
75542;SDS011;64129;53.508;10.476;2023-07-16T04:06:07;2.22;;;1.30;;
75542;SDS011;64129;53.508;10.476;2023-07-16T04:08:37;2.60;;;1.27;;
75542;SDS011;64129;53.508;10.476;2023-07-16T04:11:04;1.98;;;1.13;;
75542;SDS011;64129;53.508;10.476;2023-07-16T04:13:31;3.20;;;1.50;;
75542;SDS011;64129;53.508;10.476;2023-07-16T04:15:58;2.35;;;1.48;;
75542;SDS011;64129;53.508;10.476;2023-07-16T04:18:25;3.90;;;1.23;;
75542;SDS011;64129;53.508;10.476;2023-07-16T04:20:51;2.67;;;1.35;;
75542;SDS011;64129;53.508;10.476;2023-07-16T04:23:18;4.50;;;1.42;;
75542;SDS011;64129;53.508;10.476;2023-07-16T04:25:45;2.03;;;1.25;;
75542;SDS011;64129;53.508;10.476;2023-07-16T04:28:12;3.22;;;1.30;;
75542;SDS011;64129;53.508;10.476;2023-07-16T04:30:38;2.20;;;1.30;;
75542;SDS011;64129;53.508;10.476;2023-07-16T04:33:05;2.22;;;1.30;;
75542;SDS011;64129;53.508;10.476;2023-07-16T04:35:32;4.30;;;1.33;;
75542;SDS011;64129;53.508;10.476;2023-07-16T04:37:59;2.42;;;1.40;;
75542;SDS011;64129;53.508;10.476;2023-07-16T04:40:26;1.42;;;1.27;;
75542;SDS011;64129;53.508;10.476;2023-07-16T04:42:54;1.60;;;1.50;;
75542;SDS011;64129;53.508;10.476;2023-07-16T04:45:21;3.75;;;1.60;;
75542;SDS011;64129;53.508;10.476;2023-07-16T04:47:48;2.78;;;1.70;;
75542;SDS011;64129;53.508;10.476;2023-07-16T04:50:14;2.33;;;1.30;;
75542;SDS011;64129;53.508;10.476;2023-07-16T04:52:41;1.80;;;1.35;;
75542;SDS011;64129;53.508;10.476;2023-07-16T04:55:07;2.03;;;1.48;;
75542;SDS011;64129;53.508;10.476;2023-07-16T04:57:34;1.60;;;1.30;;
75542;SDS011;64129;53.508;10.476;2023-07-16T05:00:00;2.30;;;1.33;;
75542;SDS011;64129;53.508;10.476;2023-07-16T05:02:27;3.25;;;1.42;;
75542;SDS011;64129;53.508;10.476;2023-07-16T05:04:53;2.05;;;1.40;;
75542;SDS011;64129;53.508;10.476;2023-07-16T05:07:20;2.47;;;1.70;;
75542;SDS011;64129;53.508;10.476;2023-07-16T05:09:47;1.70;;;1.60;;
75542;SDS011;64129;53.508;10.476;2023-07-16T05:12:13;2.72;;;1.42;;
75542;SDS011;64129;53.508;10.476;2023-07-16T05:14:49;5.13;;;1.75;;
75542;SDS011;64129;53.508;10.476;2023-07-16T05:17:15;2.25;;;1.33;;
75542;SDS011;64129;53.508;10.476;2023-07-16T05:19:42;2.85;;;1.50;;
75542;SDS011;64129;53.508;10.476;2023-07-16T05:22:09;3.17;;;1.42;;
75542;SDS011;64129;53.508;10.476;2023-07-16T05:24:35;3.72;;;1.80;;
75542;SDS011;64129;53.508;10.476;2023-07-16T05:27:02;2.03;;;1.35;;
75542;SDS011;64129;53.508;10.476;2023-07-16T05:29:28;1.60;;;1.38;;
75542;SDS011;64129;53.508;10.476;2023-07-16T05:31:55;5.40;;;1.80;;
75542;SDS011;64129;53.508;10.476;2023-07-16T05:34:22;4.07;;;1.50;;
75542;SDS011;64129;53.508;10.476;2023-07-16T05:36:48;2.97;;;1.42;;
75542;SDS011;64129;53.508;10.476;2023-07-16T05:39:15;1.83;;;1.35;;
75542;SDS011;64129;53.508;10.476;2023-07-16T05:41:42;3.28;;;1.58;;
75542;SDS011;64129;53.508;10.476;2023-07-16T05:44:09;4.15;;;1.63;;
75542;SDS011;64129;53.508;10.476;2023-07-16T05:46:36;2.45;;;1.30;;
75542;SDS011;64129;53.508;10.476;2023-07-16T05:49:02;3.63;;;1.60;;
75542;SDS011;64129;53.508;10.476;2023-07-16T05:51:29;2.33;;;1.40;;
75542;SDS011;64129;53.508;10.476;2023-07-16T05:53:56;2.67;;;1.35;;
75542;SDS011;64129;53.508;10.476;2023-07-16T05:56:23;2.30;;;1.40;;
75542;SDS011;64129;53.508;10.476;2023-07-16T05:58:49;6.70;;;1.60;;
75542;SDS011;64129;53.508;10.476;2023-07-16T06:01:16;1.60;;;1.40;;
75542;SDS011;64129;53.508;10.476;2023-07-16T06:03:42;1.73;;;1.40;;
75542;SDS011;64129;53.508;10.476;2023-07-16T06:06:09;2.92;;;1.20;;
75542;SDS011;64129;53.508;10.476;2023-07-16T06:08:35;2.63;;;1.40;;
75542;SDS011;64129;53.508;10.476;2023-07-16T06:11:02;2.70;;;1.42;;
75542;SDS011;64129;53.508;10.476;2023-07-16T06:15:56;2.75;;;1.13;;
75542;SDS011;64129;53.508;10.476;2023-07-16T06:18:23;2.90;;;1.42;;
75542;SDS011;64129;53.508;10.476;2023-07-16T06:20:50;4.00;;;1.55;;
75542;SDS011;64129;53.508;10.476;2023-07-16T06:23:18;4.57;;;1.90;;
75542;SDS011;64129;53.508;10.476;2023-07-16T06:25:44;2.70;;;1.40;;
75542;SDS011;64129;53.508;10.476;2023-07-16T06:28:13;3.15;;;1.50;;
75542;SDS011;64129;53.508;10.476;2023-07-16T06:30:40;2.15;;;1.70;;
75542;SDS011;64129;53.508;10.476;2023-07-16T06:33:06;4.18;;;1.65;;
75542;SDS011;64129;53.508;10.476;2023-07-16T06:35:33;6.20;;;1.90;;
75542;SDS011;64129;53.508;10.476;2023-07-16T06:38:00;3.20;;;1.40;;
75542;SDS011;64129;53.508;10.476;2023-07-16T06:40:27;3.78;;;1.80;;
75542;SDS011;64129;53.508;10.476;2023-07-16T06:42:55;1.90;;;1.38;;
75542;SDS011;64129;53.508;10.476;2023-07-16T06:45:21;3.33;;;1.65;;
75542;SDS011;64129;53.508;10.476;2023-07-16T06:47:48;2.53;;;1.67;;
75542;SDS011;64129;53.508;10.476;2023-07-16T06:50:15;4.55;;;1.88;;
75542;SDS011;64129;53.508;10.476;2023-07-16T06:52:42;3.72;;;1.48;;
75542;SDS011;64129;53.508;10.476;2023-07-16T06:55:09;2.58;;;1.30;;
75542;SDS011;64129;53.508;10.476;2023-07-16T06:57:35;3.95;;;1.15;;
75542;SDS011;64129;53.508;10.476;2023-07-16T07:00:02;3.88;;;1.58;;
75542;SDS011;64129;53.508;10.476;2023-07-16T07:02:30;3.00;;;1.30;;
75542;SDS011;64129;53.508;10.476;2023-07-16T07:04:56;4.57;;;1.42;;
75542;SDS011;64129;53.508;10.476;2023-07-16T07:07:24;2.65;;;1.17;;
75542;SDS011;64129;53.508;10.476;2023-07-16T07:09:51;5.18;;;1.80;;
75542;SDS011;64129;53.508;10.476;2023-07-16T07:12:17;4.90;;;1.30;;
75542;SDS011;64129;53.508;10.476;2023-07-16T07:14:44;3.00;;;1.20;;
75542;SDS011;64129;53.508;10.476;2023-07-16T07:17:12;3.20;;;1.45;;
75542;SDS011;64129;53.508;10.476;2023-07-16T07:19:39;4.38;;;1.40;;
75542;SDS011;64129;53.508;10.476;2023-07-16T07:22:06;3.65;;;1.83;;
75542;SDS011;64129;53.508;10.476;2023-07-16T07:24:32;4.38;;;1.40;;
75542;SDS011;64129;53.508;10.476;2023-07-16T07:26:59;3.90;;;1.75;;
75542;SDS011;64129;53.508;10.476;2023-07-16T07:29:25;4.57;;;1.50;;
75542;SDS011;64129;53.508;10.476;2023-07-16T07:31:52;2.75;;;1.50;;
75542;SDS011;64129;53.508;10.476;2023-07-16T07:34:19;3.38;;;1.40;;
75542;SDS011;64129;53.508;10.476;2023-07-16T07:36:45;4.28;;;1.50;;
75542;SDS011;64129;53.508;10.476;2023-07-16T07:39:12;4.90;;;1.85;;
75542;SDS011;64129;53.508;10.476;2023-07-16T07:41:42;3.15;;;1.20;;
75542;SDS011;64129;53.508;10.476;2023-07-16T07:44:09;3.92;;;1.50;;
75542;SDS011;64129;53.508;10.476;2023-07-16T07:46:36;3.67;;;1.70;;
75542;SDS011;64129;53.508;10.476;2023-07-16T07:49:02;3.25;;;1.50;;
75542;SDS011;64129;53.508;10.476;2023-07-16T07:51:29;3.58;;;1.42;;
75542;SDS011;64129;53.508;10.476;2023-07-16T07:53:55;3.85;;;1.58;;
75542;SDS011;64129;53.508;10.476;2023-07-16T07:56:22;5.55;;;1.80;;
75542;SDS011;64129;53.508;10.476;2023-07-16T07:58:48;4.00;;;1.77;;
75542;SDS011;64129;53.508;10.476;2023-07-16T08:01:15;3.53;;;1.45;;
75542;SDS011;64129;53.508;10.476;2023-07-16T08:03:41;5.00;;;1.50;;
75542;SDS011;64129;53.508;10.476;2023-07-16T08:06:08;3.80;;;1.98;;
75542;SDS011;64129;53.508;10.476;2023-07-16T08:08:35;4.50;;;1.65;;
75542;SDS011;64129;53.508;10.476;2023-07-16T08:11:01;5.93;;;1.80;;
75542;SDS011;64129;53.508;10.476;2023-07-16T08:13:28;3.20;;;1.70;;
75542;SDS011;64129;53.508;10.476;2023-07-16T08:15:54;3.97;;;1.80;;
75542;SDS011;64129;53.508;10.476;2023-07-16T08:18:21;3.90;;;1.70;;
75542;SDS011;64129;53.508;10.476;2023-07-16T08:20:47;2.47;;;1.50;;
75542;SDS011;64129;53.508;10.476;2023-07-16T08:23:14;3.33;;;1.60;;
75542;SDS011;64129;53.508;10.476;2023-07-16T08:25:41;3.40;;;1.70;;
75542;SDS011;64129;53.508;10.476;2023-07-16T08:28:08;2.95;;;1.58;;
75542;SDS011;64129;53.508;10.476;2023-07-16T08:30:36;2.85;;;1.60;;
75542;SDS011;64129;53.508;10.476;2023-07-16T08:33:02;6.70;;;1.60;;
75542;SDS011;64129;53.508;10.476;2023-07-16T08:35:29;3.92;;;1.83;;
75542;SDS011;64129;53.508;10.476;2023-07-16T08:37:55;7.95;;;1.40;;
75542;SDS011;64129;53.508;10.476;2023-07-16T08:40:22;3.85;;;1.58;;
75542;SDS011;64129;53.508;10.476;2023-07-16T08:42:49;2.70;;;1.55;;
75542;SDS011;64129;53.508;10.476;2023-07-16T08:45:15;3.38;;;1.48;;
75542;SDS011;64129;53.508;10.476;2023-07-16T08:47:42;4.35;;;1.58;;
75542;SDS011;64129;53.508;10.476;2023-07-16T08:50:09;3.55;;;1.50;;
75542;SDS011;64129;53.508;10.476;2023-07-16T08:52:37;2.75;;;1.40;;
75542;SDS011;64129;53.508;10.476;2023-07-16T08:55:03;5.05;;;1.65;;
75542;SDS011;64129;53.508;10.476;2023-07-16T08:57:31;4.72;;;1.55;;
75542;SDS011;64129;53.508;10.476;2023-07-16T08:59:58;5.22;;;1.40;;
75542;SDS011;64129;53.508;10.476;2023-07-16T09:02:24;2.63;;;1.38;;
75542;SDS011;64129;53.508;10.476;2023-07-16T09:04:51;3.08;;;1.58;;
75542;SDS011;64129;53.508;10.476;2023-07-16T09:07:18;2.58;;;1.33;;
75542;SDS011;64129;53.508;10.476;2023-07-16T09:09:59;4.50;;;1.60;;
75542;SDS011;64129;53.508;10.476;2023-07-16T09:12:26;1.83;;;1.38;;
75542;SDS011;64129;53.508;10.476;2023-07-16T09:14:53;3.03;;;1.73;;
75542;SDS011;64129;53.508;10.476;2023-07-16T09:17:23;4.05;;;2.00;;
75542;SDS011;64129;53.508;10.476;2023-07-16T09:19:51;3.60;;;1.65;;
75542;SDS011;64129;53.508;10.476;2023-07-16T09:22:18;2.47;;;1.75;;
75542;SDS011;64129;53.508;10.476;2023-07-16T09:27:13;4.40;;;1.70;;
75542;SDS011;64129;53.508;10.476;2023-07-16T09:29:40;2.95;;;2.03;;
75542;SDS011;64129;53.508;10.476;2023-07-16T09:32:07;2.97;;;1.55;;
75542;SDS011;64129;53.508;10.476;2023-07-16T09:34:34;3.10;;;1.55;;
75542;SDS011;64129;53.508;10.476;2023-07-16T09:37:00;2.45;;;1.77;;
75542;SDS011;64129;53.508;10.476;2023-07-16T09:39:28;5.50;;;2.17;;
75542;SDS011;64129;53.508;10.476;2023-07-16T09:41:54;2.80;;;2.22;;
75542;SDS011;64129;53.508;10.476;2023-07-16T09:44:24;3.42;;;2.03;;
75542;SDS011;64129;53.508;10.476;2023-07-16T09:46:50;7.35;;;2.67;;
75542;SDS011;64129;53.508;10.476;2023-07-16T09:49:17;2.97;;;2.08;;
75542;SDS011;64129;53.508;10.476;2023-07-16T09:51:44;4.78;;;2.33;;
75542;SDS011;64129;53.508;10.476;2023-07-16T09:56:40;4.53;;;2.35;;
75542;SDS011;64129;53.508;10.476;2023-07-16T09:59:17;3.83;;;2.42;;
75542;SDS011;64129;53.508;10.476;2023-07-16T10:01:48;3.13;;;2.45;;
75542;SDS011;64129;53.508;10.476;2023-07-16T10:04:19;3.60;;;2.25;;
75542;SDS011;64129;53.508;10.476;2023-07-16T10:06:51;5.22;;;2.10;;
75542;SDS011;64129;53.508;10.476;2023-07-16T10:09:31;6.13;;;2.65;;
75542;SDS011;64129;53.508;10.476;2023-07-16T10:12:11;5.30;;;2.65;;
75542;SDS011;64129;53.508;10.476;2023-07-16T10:14:40;3.30;;;2.60;;
75542;SDS011;64129;53.508;10.476;2023-07-16T10:17:14;4.03;;;1.88;;
75542;SDS011;64129;53.508;10.476;2023-07-16T10:27:48;4.32;;;2.00;;
75542;SDS011;64129;53.508;10.476;2023-07-16T10:30:16;4.95;;;2.13;;
75542;SDS011;64129;53.508;10.476;2023-07-16T10:32:43;5.53;;;2.22;;
75542;SDS011;64129;53.508;10.476;2023-07-16T10:35:10;4.35;;;2.38;;
75542;SDS011;64129;53.508;10.476;2023-07-16T10:37:38;5.13;;;2.55;;
75542;SDS011;64129;53.508;10.476;2023-07-16T10:40:09;3.90;;;2.47;;
75542;SDS011;64129;53.508;10.476;2023-07-16T10:42:37;5.13;;;2.33;;
75542;SDS011;64129;53.508;10.476;2023-07-16T10:45:07;8.57;;;2.63;;
75542;SDS011;64129;53.508;10.476;2023-07-16T10:47:34;3.97;;;2.63;;
75542;SDS011;64129;53.508;10.476;2023-07-16T10:50:09;3.50;;;2.50;;
75542;SDS011;64129;53.508;10.476;2023-07-16T10:52:36;3.97;;;2.60;;
75542;SDS011;64129;53.508;10.476;2023-07-16T10:55:06;5.10;;;2.85;;
75542;SDS011;64129;53.508;10.476;2023-07-16T10:57:33;4.38;;;2.67;;
75542;SDS011;64129;53.508;10.476;2023-07-16T10:59:59;3.10;;;2.17;;
75542;SDS011;64129;53.508;10.476;2023-07-16T11:02:26;5.00;;;2.67;;
75542;SDS011;64129;53.508;10.476;2023-07-16T11:04:53;3.90;;;2.60;;
75542;SDS011;64129;53.508;10.476;2023-07-16T11:07:20;4.90;;;2.60;;
75542;SDS011;64129;53.508;10.476;2023-07-16T11:09:51;4.50;;;2.38;;
75542;SDS011;64129;53.508;10.476;2023-07-16T11:12:20;6.00;;;2.47;;
75542;SDS011;64129;53.508;10.476;2023-07-16T11:14:49;4.40;;;2.72;;
75542;SDS011;64129;53.508;10.476;2023-07-16T11:17:19;3.45;;;2.85;;
75542;SDS011;64129;53.508;10.476;2023-07-16T11:19:47;4.13;;;2.30;;
75542;SDS011;64129;53.508;10.476;2023-07-16T11:22:15;8.32;;;2.90;;
75542;SDS011;64129;53.508;10.476;2023-07-16T11:24:43;4.82;;;2.65;;
75542;SDS011;64129;53.508;10.476;2023-07-16T11:27:15;3.22;;;2.47;;
75542;SDS011;64129;53.508;10.476;2023-07-16T11:29:45;4.38;;;2.67;;
75542;SDS011;64129;53.508;10.476;2023-07-16T11:32:31;4.32;;;2.65;;
75542;SDS011;64129;53.508;10.476;2023-07-16T11:34:59;4.90;;;2.80;;
75542;SDS011;64129;53.508;10.476;2023-07-16T11:37:28;4.45;;;2.42;;
75542;SDS011;64129;53.508;10.476;2023-07-16T11:40:06;5.60;;;2.58;;
75542;SDS011;64129;53.508;10.476;2023-07-16T11:45:02;5.65;;;2.63;;
75542;SDS011;64129;53.508;10.476;2023-07-16T11:47:30;5.70;;;2.60;;
75542;SDS011;64129;53.508;10.476;2023-07-16T11:49:57;3.45;;;2.70;;
75542;SDS011;64129;53.508;10.476;2023-07-16T11:52:25;3.40;;;2.10;;
75542;SDS011;64129;53.508;10.476;2023-07-16T11:54:54;4.50;;;2.47;;
75542;SDS011;64129;53.508;10.476;2023-07-16T11:57:22;4.03;;;2.58;;
75542;SDS011;64129;53.508;10.476;2023-07-16T11:59:49;4.97;;;2.97;;
75542;SDS011;64129;53.508;10.476;2023-07-16T12:02:16;3.95;;;2.35;;
75542;SDS011;64129;53.508;10.476;2023-07-16T12:04:42;5.32;;;2.53;;
75542;SDS011;64129;53.508;10.476;2023-07-16T12:07:09;4.13;;;3.00;;
75542;SDS011;64129;53.508;10.476;2023-07-16T12:09:36;3.03;;;2.20;;
75542;SDS011;64129;53.508;10.476;2023-07-16T12:12:02;4.50;;;2.88;;
75542;SDS011;64129;53.508;10.476;2023-07-16T12:14:30;3.40;;;2.45;;
75542;SDS011;64129;53.508;10.476;2023-07-16T12:16:57;4.63;;;2.72;;
75542;SDS011;64129;53.508;10.476;2023-07-16T12:19:24;5.20;;;2.58;;
75542;SDS011;64129;53.508;10.476;2023-07-16T12:21:50;6.80;;;6.18;;
75542;SDS011;64129;53.508;10.476;2023-07-16T12:24:19;4.82;;;2.58;;
75542;SDS011;64129;53.508;10.476;2023-07-16T12:26:46;4.65;;;2.63;;
75542;SDS011;64129;53.508;10.476;2023-07-16T12:29:12;3.42;;;3.05;;
75542;SDS011;64129;53.508;10.476;2023-07-16T12:31:39;4.03;;;2.53;;
75542;SDS011;64129;53.508;10.476;2023-07-16T12:34:05;3.15;;;2.25;;
75542;SDS011;64129;53.508;10.476;2023-07-16T12:36:32;4.82;;;2.13;;
75542;SDS011;64129;53.508;10.476;2023-07-16T12:38:58;4.78;;;2.53;;
75542;SDS011;64129;53.508;10.476;2023-07-16T12:41:26;3.50;;;2.28;;
75542;SDS011;64129;53.508;10.476;2023-07-16T12:43:52;3.97;;;2.45;;
75542;SDS011;64129;53.508;10.476;2023-07-16T12:46:19;4.07;;;2.08;;
75542;SDS011;64129;53.508;10.476;2023-07-16T12:48:46;4.80;;;2.13;;
75542;SDS011;64129;53.508;10.476;2023-07-16T12:51:12;3.08;;;2.22;;
75542;SDS011;64129;53.508;10.476;2023-07-16T12:53:39;3.72;;;1.80;;
75542;SDS011;64129;53.508;10.476;2023-07-16T12:56:05;2.63;;;2.10;;
75542;SDS011;64129;53.508;10.476;2023-07-16T12:58:32;4.00;;;1.88;;
75542;SDS011;64129;53.508;10.476;2023-07-16T13:00:58;2.90;;;2.00;;
75542;SDS011;64129;53.508;10.476;2023-07-16T13:03:25;3.58;;;2.15;;
75542;SDS011;64129;53.508;10.476;2023-07-16T13:05:52;2.28;;;1.75;;
75542;SDS011;64129;53.508;10.476;2023-07-16T13:08:18;4.10;;;2.33;;
75542;SDS011;64129;53.508;10.476;2023-07-16T13:10:45;5.32;;;2.40;;
75542;SDS011;64129;53.508;10.476;2023-07-16T13:13:11;2.65;;;2.13;;
75542;SDS011;64129;53.508;10.476;2023-07-16T13:15:38;6.07;;;2.55;;
75542;SDS011;64129;53.508;10.476;2023-07-16T13:18:04;2.95;;;2.05;;
75542;SDS011;64129;53.508;10.476;2023-07-16T13:20:31;3.50;;;2.05;;
75542;SDS011;64129;53.508;10.476;2023-07-16T13:22:57;3.53;;;2.28;;
75542;SDS011;64129;53.508;10.476;2023-07-16T13:25:25;3.35;;;2.03;;
75542;SDS011;64129;53.508;10.476;2023-07-16T13:27:52;2.92;;;1.67;;
75542;SDS011;64129;53.508;10.476;2023-07-16T13:32:46;3.28;;;1.92;;
75542;SDS011;64129;53.508;10.476;2023-07-16T13:35:15;3.83;;;1.73;;
75542;SDS011;64129;53.508;10.476;2023-07-16T13:37:42;4.47;;;2.42;;
75542;SDS011;64129;53.508;10.476;2023-07-16T13:40:09;3.03;;;2.10;;
75542;SDS011;64129;53.508;10.476;2023-07-16T13:42:35;4.55;;;2.28;;
75542;SDS011;64129;53.508;10.476;2023-07-16T13:45:02;3.75;;;1.88;;
75542;SDS011;64129;53.508;10.476;2023-07-16T13:47:29;2.38;;;1.90;;
75542;SDS011;64129;53.508;10.476;2023-07-16T13:49:56;3.47;;;2.10;;
75542;SDS011;64129;53.508;10.476;2023-07-16T13:52:22;3.17;;;1.75;;
75542;SDS011;64129;53.508;10.476;2023-07-16T13:54:49;3.90;;;1.88;;
75542;SDS011;64129;53.508;10.476;2023-07-16T13:57:15;2.67;;;1.98;;
75542;SDS011;64129;53.508;10.476;2023-07-16T13:59:42;3.10;;;1.80;;
75542;SDS011;64129;53.508;10.476;2023-07-16T14:02:08;2.90;;;1.85;;
75542;SDS011;64129;53.508;10.476;2023-07-16T14:04:35;4.88;;;1.88;;
75542;SDS011;64129;53.508;10.476;2023-07-16T14:07:02;4.35;;;1.70;;
75542;SDS011;64129;53.508;10.476;2023-07-16T14:09:29;2.90;;;1.67;;
75542;SDS011;64129;53.508;10.476;2023-07-16T14:11:55;4.63;;;2.10;;
75542;SDS011;64129;53.508;10.476;2023-07-16T14:14:22;2.15;;;1.77;;
75542;SDS011;64129;53.508;10.476;2023-07-16T14:16:49;4.13;;;1.65;;
75542;SDS011;64129;53.508;10.476;2023-07-16T14:19:16;2.50;;;1.80;;
75542;SDS011;64129;53.508;10.476;2023-07-16T14:21:42;3.42;;;1.88;;
75542;SDS011;64129;53.508;10.476;2023-07-16T14:24:09;3.40;;;1.75;;
75542;SDS011;64129;53.508;10.476;2023-07-16T14:26:35;2.42;;;1.90;;
75542;SDS011;64129;53.508;10.476;2023-07-16T14:29:02;3.30;;;1.77;;
75542;SDS011;64129;53.508;10.476;2023-07-16T14:31:29;2.65;;;1.55;;
75542;SDS011;64129;53.508;10.476;2023-07-16T14:33:55;5.03;;;2.13;;
75542;SDS011;64129;53.508;10.476;2023-07-16T14:36:22;1.92;;;1.67;;
75542;SDS011;64129;53.508;10.476;2023-07-16T14:38:49;3.25;;;2.10;;
75542;SDS011;64129;53.508;10.476;2023-07-16T14:41:15;3.10;;;1.88;;
75542;SDS011;64129;53.508;10.476;2023-07-16T14:43:42;2.63;;;1.65;;
75542;SDS011;64129;53.508;10.476;2023-07-16T14:46:09;4.30;;;2.08;;
75542;SDS011;64129;53.508;10.476;2023-07-16T14:48:42;5.38;;;2.05;;
75542;SDS011;64129;53.508;10.476;2023-07-16T14:51:10;5.63;;;2.40;;
75542;SDS011;64129;53.508;10.476;2023-07-16T14:53:37;6.03;;;2.03;;
75542;SDS011;64129;53.508;10.476;2023-07-16T14:56:04;3.50;;;2.00;;
75542;SDS011;64129;53.508;10.476;2023-07-16T14:58:32;3.83;;;2.03;;
75542;SDS011;64129;53.508;10.476;2023-07-16T15:01:01;2.90;;;1.92;;
75542;SDS011;64129;53.508;10.476;2023-07-16T15:03:34;6.43;;;2.38;;
75542;SDS011;64129;53.508;10.476;2023-07-16T15:06:02;2.97;;;1.75;;
75542;SDS011;64129;53.508;10.476;2023-07-16T15:08:29;4.00;;;1.88;;